createdAt,value
2023-05-08T00:01:58.549Z,99144.84
2023-05-08T00:04:25.854Z,99149.34
2023-05-08T00:06:53.194Z,99150.19
2023-05-08T00:09:20.779Z,99144.75
2023-05-08T00:11:48.096Z,99148.13
2023-05-08T00:14:14.894Z,99145.66
2023-05-08T00:16:41.631Z,99146.78
2023-05-08T00:19:09.604Z,99147.16
2023-05-08T00:21:36.381Z,99149.16
2023-05-08T00:24:03.103Z,99153.75
2023-05-08T00:26:30.865Z,99147.88
2023-05-08T00:28:57.610Z,99149.75
2023-05-08T00:31:24.323Z,99151.72
2023-05-08T00:33:51.177Z,99153.34
2023-05-08T00:36:18.191Z,99153.09
2023-05-08T00:38:44.935Z,99155.66
2023-05-08T00:41:11.719Z,99155.66
2023-05-08T00:43:40.350Z,99153.09
2023-05-08T00:46:09.878Z,99149.81
2023-05-08T00:48:37.841Z,99152.78
2023-05-08T00:51:08.150Z,99156.66
2023-05-08T00:53:39.816Z,99155.75
2023-05-08T00:56:09.730Z,99150.44
2023-05-08T00:58:36.569Z,99148.34
2023-05-08T01:01:04.850Z,99159.50
2023-05-08T01:03:34.535Z,99154.66
2023-05-08T01:06:02.483Z,99157.31
2023-05-08T01:08:29.258Z,99158.06
2023-05-08T01:11:07.666Z,99160.75
2023-05-08T01:14:16.471Z,99160.63
2023-05-08T01:16:49.602Z,99163.31
2023-05-08T01:19:43.054Z,99159.06
2023-05-08T01:22:47.079Z,99161.44
2023-05-08T01:25:39.460Z,99156.91
2023-05-08T01:28:24.391Z,99157.81
2023-05-08T01:31:19.745Z,99165.09
2023-05-08T01:34:04.941Z,99168.75
2023-05-08T01:36:32.110Z,99168.66
2023-05-08T01:39:18.056Z,99167.75
2023-05-08T01:42:27.731Z,99168.16
2023-05-08T01:44:59.706Z,99172.03
2023-05-08T01:47:31.212Z,99180.13
2023-05-08T01:50:07.390Z,99172.13
2023-05-08T01:52:45.471Z,99180.13
2023-05-08T01:55:18.000Z,99181.78
2023-05-08T01:57:49.308Z,99180.78
2023-05-08T02:00:19.486Z,99171.47
2023-05-08T02:02:47.851Z,99167.19
2023-05-08T02:05:18.623Z,99159.97
2023-05-08T02:07:47.854Z,99171.47
2023-05-08T02:10:16.667Z,99167.78
2023-05-08T02:12:44.687Z,99170.47
2023-05-08T02:15:14.410Z,99173.03
2023-05-08T02:17:43.498Z,99175.50
2023-05-08T02:20:15.132Z,99179.94
2023-05-08T02:22:44.734Z,99179.13
2023-05-08T02:25:14.798Z,99182.81
2023-05-08T02:27:45.749Z,99183.88
2023-05-08T02:30:14.764Z,99177.72
2023-05-08T02:32:44.627Z,99186.44
2023-05-08T02:35:17.143Z,99179.13
2023-05-08T02:37:46.875Z,99188.56
2023-05-08T02:40:15.070Z,99190.81
2023-05-08T02:42:42.165Z,99188.91
2023-05-08T02:45:09.725Z,99198.84
2023-05-08T02:47:59.132Z,99183.03
2023-05-08T02:50:55.920Z,99186.84
2023-05-08T02:53:34.463Z,99193.44
2023-05-08T02:56:11.282Z,99194.31
2023-05-08T02:58:58.083Z,99196.91
2023-05-08T03:01:30.266Z,99190.00
2023-05-08T03:04:07.996Z,99194.78
2023-05-08T03:06:40.491Z,99194.31
2023-05-08T03:09:12.907Z,99184.41
2023-05-08T03:11:42.622Z,99195.72
2023-05-08T03:14:14.055Z,99191.75
2023-05-08T03:16:44.869Z,99184.31
2023-05-08T03:19:23.129Z,99195.94
2023-05-08T03:21:52.013Z,99193.28
2023-05-08T03:24:20.542Z,99193.50
2023-05-08T03:26:47.407Z,99197.25
2023-05-08T03:29:15.796Z,99188.34
2023-05-08T03:31:44.132Z,99195.53
2023-05-08T03:34:13.777Z,99202.22
2023-05-08T03:36:41.006Z,99202.38
2023-05-08T03:39:07.878Z,99202.44
2023-05-08T03:41:34.944Z,99206.88
2023-05-08T03:44:03.761Z,99191.88
2023-05-08T03:46:32.379Z,99207.41
2023-05-08T03:49:02.843Z,99198.53
2023-05-08T03:51:30.035Z,99205.00
2023-05-08T03:53:56.724Z,99200.50
2023-05-08T03:56:25.326Z,99212.78
2023-05-08T03:58:52.606Z,99209.25
2023-05-08T04:01:40.955Z,99202.00
2023-05-08T04:04:17.719Z,99199.78
2023-05-08T04:07:06.218Z,99206.13
2023-05-08T04:09:56.822Z,99214.09
2023-05-08T04:12:31.614Z,99213.81
2023-05-08T04:15:24.180Z,99210.91
2023-05-08T04:17:56.104Z,99220.66
2023-05-08T04:20:26.140Z,99220.72
2023-05-08T04:22:53.464Z,99217.47
2023-05-08T04:25:20.384Z,99219.19
2023-05-08T04:27:51.266Z,99221.47
2023-05-08T04:30:19.001Z,99235.53
2023-05-08T04:32:47.205Z,99223.81
2023-05-08T04:35:14.547Z,99238.88
2023-05-08T04:37:43.616Z,99247.34
2023-05-08T04:40:10.975Z,99244.88
2023-05-08T04:42:39.613Z,99249.44
2023-05-08T04:45:07.128Z,99252.13
2023-05-08T04:47:33.966Z,99253.88
2023-05-08T04:50:02.777Z,99253.13
2023-05-08T04:52:30.014Z,99265.25
2023-05-08T04:54:57.635Z,99263.97
2023-05-08T04:57:24.324Z,99268.03
2023-05-08T04:59:51.138Z,99276.28
2023-05-08T05:02:18.328Z,99266.72
2023-05-08T05:04:45.056Z,99260.69
2023-05-08T05:07:11.759Z,99270.22
2023-05-08T05:09:39.648Z,99279.84
2023-05-08T05:12:07.241Z,99268.19
2023-05-08T05:14:34.400Z,99288.94
2023-05-08T05:17:01.220Z,99279.19
2023-05-08T05:19:27.900Z,99284.03
2023-05-08T05:21:54.598Z,99300.41
2023-05-08T05:24:21.319Z,99300.06
2023-05-08T05:26:48.097Z,99285.25
2023-05-08T05:29:14.967Z,99297.50
2023-05-08T05:31:42.555Z,99299.44
2023-05-08T05:34:09.399Z,99299.78
2023-05-08T05:36:36.496Z,99308.53
2023-05-08T05:39:03.601Z,99310.59
2023-05-08T05:41:30.299Z,99311.13
2023-05-08T05:43:57.013Z,99311.56
2023-05-08T05:46:28.375Z,99302.94
2023-05-08T05:48:55.072Z,99310.63
2023-05-08T05:51:21.859Z,99317.25
2023-05-08T05:53:48.519Z,99321.13
2023-05-08T05:56:15.243Z,99321.06
2023-05-08T05:58:45.017Z,99325.41
2023-05-08T06:01:12.272Z,99332.31
2023-05-08T06:03:39.120Z,99338.44
2023-05-08T06:06:06.194Z,99335.47
2023-05-08T06:08:32.925Z,99341.88
2023-05-08T06:10:59.809Z,99346.13
2023-05-08T06:13:26.664Z,99348.00
2023-05-08T06:15:57.235Z,99338.09
2023-05-08T06:18:24.233Z,99341.53
2023-05-08T06:20:57.401Z,99346.38
2023-05-08T06:23:24.360Z,99342.53
2023-05-08T06:25:52.533Z,99350.22
2023-05-08T06:28:20.127Z,99355.59
2023-05-08T06:30:46.906Z,99352.06
2023-05-08T06:33:13.641Z,99361.63
2023-05-08T06:35:40.377Z,99360.56
2023-05-08T06:38:07.294Z,99359.94
2023-05-08T06:40:33.999Z,99362.28
2023-05-08T06:43:00.691Z,99356.34
2023-05-08T06:45:27.436Z,99364.41
2023-05-08T06:47:54.163Z,99366.84
2023-05-08T06:50:21.059Z,99368.13
2023-05-08T06:52:47.900Z,99367.56
2023-05-08T06:55:15.249Z,99368.13
2023-05-08T06:57:42.245Z,99377.03
2023-05-08T07:00:10.158Z,99376.44
2023-05-08T07:02:37.193Z,99371.84
2023-05-08T07:05:04.371Z,99370.31
2023-05-08T07:07:31.286Z,99361.06
2023-05-08T07:09:58.046Z,99371.31
2023-05-08T07:12:24.868Z,99366.41
2023-05-08T07:14:51.518Z,99372.94
2023-05-08T07:17:18.320Z,99370.53
2023-05-08T07:19:45.058Z,99382.25
2023-05-08T07:22:12.088Z,99385.72
2023-05-08T07:24:38.865Z,99377.03
2023-05-08T07:27:06.560Z,99382.38
2023-05-08T07:29:33.320Z,99376.75
2023-05-08T07:32:00.221Z,99396.16
2023-05-08T07:34:29.757Z,99387.44
2023-05-08T07:36:56.439Z,99373.59
2023-05-08T07:39:23.130Z,99374.03
2023-05-08T07:41:50.114Z,99364.16
2023-05-08T07:44:19.752Z,99381.63
2023-05-08T07:46:46.526Z,99378.63
2023-05-08T07:49:13.521Z,99377.94
2023-05-08T07:51:40.365Z,99380.19
2023-05-08T07:54:07.137Z,99377.16
2023-05-08T07:56:33.911Z,99377.59
2023-05-08T07:59:00.872Z,99375.59
2023-05-08T08:01:27.617Z,99365.94
2023-05-08T08:03:55.081Z,99378.88
2023-05-08T08:06:21.907Z,99375.63
2023-05-08T08:08:48.878Z,99356.31
2023-05-08T08:11:15.741Z,99373.03
2023-05-08T08:13:44.861Z,99383.63
2023-05-08T08:16:11.673Z,99384.69
2023-05-08T08:18:38.423Z,99360.88
2023-05-08T08:21:06.761Z,99384.19
2023-05-08T08:23:34.447Z,99375.59
2023-05-08T08:26:01.266Z,99385.06
2023-05-08T08:28:28.029Z,99380.81
2023-05-08T08:30:54.857Z,99386.63
2023-05-08T08:33:21.563Z,99385.00
2023-05-08T08:35:48.302Z,99377.75
2023-05-08T08:38:14.993Z,99370.97
2023-05-08T08:40:42.781Z,99365.09
2023-05-08T08:43:10.195Z,99382.53
2023-05-08T08:45:38.003Z,99382.69
2023-05-08T08:48:05.259Z,99379.19
2023-05-08T08:50:33.096Z,99375.59
2023-05-08T08:53:32.508Z,99386.06
2023-05-08T08:56:02.261Z,99391.31
2023-05-08T08:58:33.586Z,99392.34
2023-05-08T09:01:04.346Z,99383.91
2023-05-08T09:03:32.334Z,99400.75
2023-05-08T09:06:02.927Z,99394.84
2023-05-08T09:08:30.840Z,99399.38
2023-05-08T09:11:00.979Z,99413.91
2023-05-08T09:13:31.718Z,99409.91
2023-05-08T09:16:00.761Z,99407.84
2023-05-08T09:18:27.551Z,99395.06
2023-05-08T09:20:55.085Z,99377.28
2023-05-08T09:23:21.967Z,99400.97
2023-05-08T09:25:49.893Z,99402.81
2023-05-08T09:28:20.034Z,99398.94
2023-05-08T09:30:57.052Z,99399.75
2023-05-08T09:33:28.305Z,99393.13
2023-05-08T09:35:56.553Z,99385.59
2023-05-08T09:38:44.367Z,99388.78
2023-05-08T09:41:16.845Z,99394.03
2023-05-08T09:43:45.319Z,99391.16
2023-05-08T09:46:27.470Z,99394.84
2023-05-08T09:48:56.256Z,99391.09
2023-05-08T09:51:23.936Z,99386.25
2023-05-08T09:53:53.233Z,99376.50
2023-05-08T09:56:49.228Z,99390.13
2023-05-08T09:59:30.455Z,99384.25
2023-05-08T10:01:59.180Z,99379.38
2023-05-08T10:04:34.930Z,99385.75
2023-05-08T10:07:02.326Z,99388.03
2023-05-08T10:09:38.905Z,99381.66
2023-05-08T10:12:14.553Z,99374.28
2023-05-08T10:14:42.548Z,99374.78
2023-05-08T10:17:11.356Z,99374.91
2023-05-08T10:19:46.180Z,99368.63
2023-05-08T10:22:15.945Z,99353.09
2023-05-08T10:24:45.658Z,99361.28
2023-05-08T10:27:19.615Z,99366.84
2023-05-08T10:29:55.628Z,99376.56
2023-05-08T10:32:24.587Z,99372.81
2023-05-08T10:35:00.020Z,99380.81
2023-05-08T10:37:30.340Z,99379.66
2023-05-08T10:39:59.134Z,99376.03
2023-05-08T10:42:29.556Z,99373.44
2023-05-08T10:44:56.607Z,99346.84
2023-05-08T10:47:45.194Z,99357.47
2023-05-08T10:50:36.528Z,99366.47
2023-05-08T10:53:55.815Z,99360.66
2023-05-08T10:56:30.021Z,99361.63
2023-05-08T10:59:01.588Z,99356.03
2023-05-08T11:01:28.474Z,99346.50
2023-05-08T11:03:56.428Z,99350.78
2023-05-08T11:06:53.086Z,99332.56
2023-05-08T11:09:22.286Z,99358.41
2023-05-08T11:12:03.522Z,99365.75
2023-05-08T11:14:31.957Z,99346.78
2023-05-08T11:17:00.015Z,99349.16
2023-05-08T11:19:27.939Z,99359.56
2023-05-08T11:22:13.160Z,99367.41
2023-05-08T11:24:48.717Z,99350.59
2023-05-08T11:27:16.296Z,99363.50
2023-05-08T11:29:45.326Z,99358.31
2023-05-08T11:32:12.207Z,99350.66
2023-05-08T11:34:49.283Z,99366.31
2023-05-08T11:37:21.346Z,99349.63
2023-05-08T11:39:48.766Z,99343.13
2023-05-08T11:42:47.645Z,99328.44
2023-05-08T11:45:14.496Z,99359.72
2023-05-08T11:47:44.166Z,99343.66
2023-05-08T11:50:14.493Z,99324.53
2023-05-08T11:52:44.371Z,99336.25
2023-05-08T11:55:15.806Z,99333.94
2023-05-08T11:57:43.001Z,99336.63
2023-05-08T12:00:11.489Z,99330.22
2023-05-08T12:02:43.871Z,99340.91
2023-05-08T12:05:11.630Z,99327.16
2023-05-08T12:07:47.441Z,99326.09
2023-05-08T12:10:18.626Z,99341.31
2023-05-08T12:12:45.748Z,99344.50
2023-05-08T12:15:16.262Z,99332.25
2023-05-08T12:17:43.974Z,99345.75
2023-05-08T12:20:16.549Z,99338.63
2023-05-08T12:22:51.179Z,99355.41
2023-05-08T12:25:21.333Z,99345.88
2023-05-08T12:27:48.561Z,99336.63
2023-05-08T12:30:16.684Z,99338.88
2023-05-08T12:32:44.846Z,99344.28
2023-05-08T12:35:12.996Z,99337.16
2023-05-08T12:37:40.924Z,99329.16
2023-05-08T12:40:09.614Z,99348.44
2023-05-08T12:42:48.429Z,99318.69
2023-05-08T12:45:24.285Z,99333.63
2023-05-08T12:47:53.301Z,99314.72
2023-05-08T12:50:25.267Z,99323.84
2023-05-08T12:52:52.485Z,99317.66
2023-05-08T12:55:27.933Z,99325.66
2023-05-08T12:58:07.723Z,99324.69
2023-05-08T13:00:46.025Z,99324.94
2023-05-08T13:03:21.787Z,99328.28
2023-05-08T13:05:48.702Z,99319.53
2023-05-08T13:08:15.822Z,99337.06
2023-05-08T13:10:53.528Z,99331.44
2023-05-08T13:13:33.193Z,99310.53
2023-05-08T13:16:06.320Z,99331.66
2023-05-08T13:18:34.045Z,99335.28
2023-05-08T13:21:02.208Z,99334.94
2023-05-08T13:23:29.223Z,99326.53
2023-05-08T13:25:56.274Z,99334.31
2023-05-08T13:28:22.964Z,99327.06
2023-05-08T13:30:49.782Z,99318.34
2023-05-08T13:33:16.982Z,99317.16
2023-05-08T13:35:43.797Z,99312.31
2023-05-08T13:38:10.789Z,99280.84
2023-05-08T13:40:37.562Z,99321.66
2023-05-08T13:43:04.321Z,99311.34
2023-05-08T13:45:32.467Z,99314.63
2023-05-08T13:47:59.290Z,99304.50
2023-05-08T13:50:27.396Z,99312.78
2023-05-08T13:52:55.217Z,99324.16
2023-05-08T13:55:23.668Z,99311.63
2023-05-08T13:57:51.257Z,99309.81
2023-05-08T14:00:19.454Z,99319.91
2023-05-08T14:02:46.491Z,99314.81
2023-05-08T14:05:15.767Z,99308.28
2023-05-08T14:07:43.852Z,99320.97
2023-05-08T14:10:11.288Z,99316.47
2023-05-08T14:12:38.140Z,99314.06
2023-05-08T14:15:05.673Z,99292.38
2023-05-08T14:17:32.810Z,99326.78
2023-05-08T14:19:59.589Z,99300.47
2023-05-08T14:22:26.347Z,99309.13
2023-05-08T14:24:53.301Z,99301.41
2023-05-08T14:27:20.440Z,99308.78
2023-05-08T14:29:47.723Z,99301.31
2023-05-08T14:32:14.633Z,99308.69
2023-05-08T14:34:42.081Z,99298.38
2023-05-08T14:37:11.100Z,99299.81
2023-05-08T14:39:37.795Z,99297.56
2023-05-08T14:44:34.259Z,99308.69
2023-05-08T14:47:00.978Z,99312.41
2023-05-08T14:49:36.811Z,99303.59
2023-05-08T14:52:07.145Z,99314.56
2023-05-08T14:54:34.330Z,99311.84
2023-05-08T14:57:01.241Z,99305.41
2023-05-08T14:59:28.068Z,99308.47
2023-05-08T15:01:55.030Z,99304.81
2023-05-08T15:04:21.963Z,99302.03
2023-05-08T15:06:48.673Z,99301.34
2023-05-08T15:09:17.083Z,99297.03
2023-05-08T15:11:44.554Z,99312.22
2023-05-08T15:14:11.430Z,99311.28
2023-05-08T15:16:38.268Z,99307.41
2023-05-08T15:19:06.106Z,99308.16
2023-05-08T15:21:32.857Z,99317.50
2023-05-08T15:23:59.644Z,99314.47
2023-05-08T15:26:26.399Z,99321.31
2023-05-08T15:28:53.394Z,99311.94
2023-05-08T15:31:20.739Z,99307.38
2023-05-08T15:33:48.419Z,99302.84
2023-05-08T15:36:16.060Z,99298.28
2023-05-08T15:38:46.213Z,99307.06
2023-05-08T15:41:15.373Z,99309.78
2023-05-08T15:43:43.519Z,99304.00
2023-05-08T15:46:10.382Z,99301.53
2023-05-08T15:48:38.302Z,99300.78
2023-05-08T15:51:05.001Z,99303.75
2023-05-08T15:53:33.206Z,99298.84
2023-05-08T15:56:01.632Z,99303.41
2023-05-08T15:58:28.924Z,99302.84
2023-05-08T16:00:57.043Z,99302.69
2023-05-08T16:03:24.454Z,99308.28
2023-05-08T16:05:51.239Z,99298.16
2023-05-08T16:08:17.952Z,99291.75
2023-05-08T16:10:45.624Z,99287.91
2023-05-08T16:13:12.437Z,99293.22
2023-05-08T16:15:39.269Z,99290.16
2023-05-08T16:18:07.599Z,99293.91
2023-05-08T16:20:36.425Z,99281.38
2023-05-08T16:23:03.525Z,99287.75
2023-05-08T16:25:32.989Z,99293.34
2023-05-08T16:28:03.803Z,99284.84
2023-05-08T16:30:31.064Z,99293.22
2023-05-08T16:32:57.774Z,99296.22
2023-05-08T16:35:25.147Z,99290.75
2023-05-08T16:37:52.898Z,99291.47
2023-05-08T16:40:19.755Z,99290.97
2023-05-08T16:42:46.748Z,99289.22
2023-05-08T16:45:13.977Z,99296.16
2023-05-08T16:47:41.120Z,99292.31
2023-05-08T16:50:08.564Z,99290.81
2023-05-08T16:52:35.303Z,99296.25
2023-05-08T16:55:02.075Z,99287.53
2023-05-08T16:57:29.065Z,99285.16
2023-05-08T16:59:55.970Z,99292.16
2023-05-08T17:02:23.139Z,99299.00
2023-05-08T17:04:50.538Z,99289.06
2023-05-08T17:07:18.490Z,99283.59
2023-05-08T17:09:45.728Z,99291.28
2023-05-08T17:12:12.500Z,99295.13
2023-05-08T17:14:40.518Z,99292.91
2023-05-08T17:17:08.756Z,99298.31
2023-05-08T17:19:35.529Z,99298.59
2023-05-08T17:22:03.596Z,99303.09
2023-05-08T17:24:32.437Z,99299.19
2023-05-08T17:27:00.850Z,99306.16
2023-05-08T17:29:27.807Z,99307.09
2023-05-08T17:31:54.627Z,99302.22
2023-05-08T17:34:22.818Z,99303.28
2023-05-08T17:36:50.155Z,99295.91
2023-05-08T17:39:19.949Z,99295.28
2023-05-08T17:41:49.464Z,99301.56
2023-05-08T17:44:19.745Z,99291.72
2023-05-08T17:46:46.609Z,99299.66
2023-05-08T17:49:14.743Z,99293.22
2023-05-08T17:51:42.477Z,99288.44
2023-05-08T17:54:09.166Z,99297.38
2023-05-08T17:56:36.330Z,99294.59
2023-05-08T17:59:03.049Z,99302.22
2023-05-08T18:01:29.958Z,99302.50
2023-05-08T18:03:56.708Z,99306.22
2023-05-08T18:06:23.379Z,99302.06
2023-05-08T18:08:50.079Z,99303.97
2023-05-08T18:11:35.895Z,99311.41
2023-05-08T18:14:03.718Z,99304.78
2023-05-08T18:16:30.778Z,99314.22
2023-05-08T18:18:57.668Z,99314.47
2023-05-08T18:21:24.761Z,99312.19
2023-05-08T18:23:52.694Z,99318.78
2023-05-08T18:26:19.397Z,99311.81
2023-05-08T18:28:46.424Z,99317.50
2023-05-08T18:31:13.737Z,99313.31
2023-05-08T18:33:40.763Z,99317.13
2023-05-08T18:36:08.772Z,99326.47
2023-05-08T18:38:38.538Z,99326.78
2023-05-08T18:41:06.181Z,99325.38
2023-05-08T18:43:33.464Z,99332.81
2023-05-08T18:46:00.898Z,99337.53
2023-05-08T18:48:27.801Z,99335.00
2023-05-08T18:50:59.017Z,99337.06
2023-05-08T18:53:28.015Z,99344.00
2023-05-08T18:55:54.665Z,99340.53
2023-05-08T18:58:23.212Z,99338.16
2023-05-08T19:00:49.953Z,99332.16
2023-05-08T19:03:18.447Z,99331.59
2023-05-08T19:05:45.353Z,99345.16
2023-05-08T19:08:13.258Z,99343.44
2023-05-08T19:10:40.995Z,99345.56
2023-05-08T19:13:07.722Z,99340.31
2023-05-08T19:15:34.708Z,99334.03
2023-05-08T19:18:05.374Z,99334.16
2023-05-08T19:20:32.803Z,99331.72
2023-05-08T19:23:00.222Z,99331.06
2023-05-08T19:25:27.271Z,99326.88
2023-05-08T19:27:54.004Z,99333.25
2023-05-08T19:30:20.908Z,99335.09
2023-05-08T19:32:47.623Z,99331.59
2023-05-08T19:35:14.342Z,99334.50
2023-05-08T19:37:43.486Z,99333.88
2023-05-08T19:40:10.738Z,99341.22
2023-05-08T19:42:37.759Z,99328.19
2023-05-08T19:45:05.003Z,99333.69
2023-05-08T19:47:31.759Z,99329.41
2023-05-08T19:49:58.494Z,99330.63
2023-05-08T19:52:25.143Z,99327.41
2023-05-08T19:54:52.123Z,99324.13
2023-05-08T19:57:18.983Z,99317.25
2023-05-08T19:59:46.078Z,99316.59
2023-05-08T20:02:12.980Z,99315.84
2023-05-08T20:04:57.390Z,99314.19
2023-05-08T20:07:27.153Z,99310.78
2023-05-08T20:09:54.468Z,99310.78
2023-05-08T20:12:21.175Z,99305.56
2023-05-08T20:14:48.242Z,99310.91
2023-05-08T20:17:15.054Z,99304.69
2023-05-08T20:19:41.788Z,99296.00
2023-05-08T20:22:11.081Z,99298.72
2023-05-08T20:24:39.114Z,99302.44
2023-05-08T20:27:05.855Z,99299.25
2023-05-08T20:29:32.731Z,99303.81
2023-05-08T20:31:59.534Z,99295.84
2023-05-08T20:34:26.261Z,99290.47
2023-05-08T20:36:52.972Z,99297.03
2023-05-08T20:39:19.635Z,99304.34
2023-05-08T20:41:46.315Z,99307.09
2023-05-08T20:44:17.150Z,99299.19
2023-05-08T20:46:44.126Z,99299.31
2023-05-08T20:49:10.854Z,99296.66
2023-05-08T20:51:40.580Z,99294.03
2023-05-08T20:54:09.898Z,99295.22
2023-05-08T20:56:36.696Z,99291.06
2023-05-08T20:59:03.462Z,99292.94
2023-05-08T21:01:30.135Z,99292.13
2023-05-08T21:03:56.985Z,99293.22
2023-05-08T21:06:23.647Z,99288.03
2023-05-08T21:08:50.721Z,99292.53
2023-05-08T21:11:17.431Z,99286.44
2023-05-08T21:13:44.534Z,99281.94
2023-05-08T21:16:12.910Z,99283.81
2023-05-08T21:18:41.076Z,99286.56
2023-05-08T21:21:17.564Z,99284.78
2023-05-08T21:23:46.141Z,99279.59
2023-05-08T21:26:12.840Z,99283.28
2023-05-08T21:28:39.551Z,99298.53
2023-05-08T21:31:06.482Z,99289.78
2023-05-08T21:33:33.973Z,99290.69
2023-05-08T21:36:01.473Z,99282.88
2023-05-08T21:38:28.206Z,99286.47
2023-05-08T21:40:55.856Z,99279.41
2023-05-08T21:43:22.665Z,99281.28
2023-05-08T21:45:49.440Z,99289.25
2023-05-08T21:48:16.206Z,99284.75
2023-05-08T21:50:42.925Z,99281.13
2023-05-08T21:53:09.631Z,99281.22
2023-05-08T21:55:36.740Z,99281.22
2023-05-08T21:58:03.853Z,99276.94
2023-05-08T22:00:30.591Z,99278.91
2023-05-08T22:02:58.352Z,99271.06
2023-05-08T22:05:25.450Z,99280.91
2023-05-08T22:07:52.216Z,99277.38
2023-05-08T22:10:21.604Z,99274.00
2023-05-08T22:12:49.270Z,99278.28
2023-05-08T22:15:26.084Z,99270.41
2023-05-08T22:17:56.594Z,99276.84
2023-05-08T22:20:23.529Z,99268.13
2023-05-08T22:22:51.983Z,99265.56
2023-05-08T22:25:18.802Z,99255.75
2023-05-08T22:27:45.535Z,99262.78
2023-05-08T22:30:15.354Z,99261.97
2023-05-08T22:32:42.829Z,99259.31
2023-05-08T22:35:09.715Z,99257.72
2023-05-08T22:37:37.455Z,99256.97
2023-05-08T22:40:04.423Z,99250.91
2023-05-08T22:42:31.192Z,99253.75
2023-05-08T22:44:58.009Z,99257.47
2023-05-08T22:47:26.105Z,99249.47
2023-05-08T22:49:52.921Z,99245.13
2023-05-08T22:52:28.630Z,99238.94
2023-05-08T22:54:59.683Z,99244.34
2023-05-08T22:57:26.432Z,99246.28
2023-05-08T22:59:53.248Z,99242.72
2023-05-08T23:02:20.002Z,99248.00
2023-05-08T23:04:46.862Z,99241.88
2023-05-08T23:07:13.551Z,99239.13
2023-05-08T23:09:40.387Z,99243.63
2023-05-08T23:12:07.652Z,99242.88
2023-05-08T23:14:34.386Z,99244.97
2023-05-08T23:17:01.236Z,99242.59
2023-05-08T23:19:29.239Z,99241.94
2023-05-08T23:21:56.141Z,99242.84
2023-05-08T23:24:22.854Z,99234.84
2023-05-08T23:26:49.866Z,99230.28
2023-05-08T23:29:16.659Z,99236.38
2023-05-08T23:31:43.468Z,99230.13
2023-05-08T23:34:10.244Z,99231.78
2023-05-08T23:36:36.925Z,99236.44
2023-05-08T23:39:03.679Z,99224.28
2023-05-08T23:41:30.437Z,99227.75
2023-05-08T23:43:57.213Z,99229.69
2023-05-08T23:46:24.087Z,99221.84
2023-05-08T23:48:50.922Z,99226.56
2023-05-08T23:51:17.845Z,99222.44
2023-05-08T23:53:44.571Z,99225.41
2023-05-08T23:56:11.281Z,99215.78
2023-05-08T23:58:38.873Z,99223.78
